Time;durP1;ratioP1;P1;durP2;ratioP2;P2;SDS_P1;SDS_P2;PMS_P1;PMS_P2;Temp;Humidity;BMP_temperature;BMP_pressure;BME280_temperature;BME280_humidity;BME280_pressure;Samples;Min_cycle;Max_cycle;Signal;HPM_P1;HPM_P2
2022/06/18 00:00:56;;;;;;;;;;;;;;;22.95;45.67;101475.84;5094639;28;20130;-32
2022/06/18 00:03:23;;;;;;;0.10;0.10;;;;;;;22.95;45.68;101473.88;5126701;28;20354;-33
2022/06/18 00:05:51;;;;;;;0.10;0.10;;;;;;;22.95;45.72;101473.06;5127841;28;20477;-33
2022/06/18 00:08:22;;;;;;;0.00;0.00;;;;;;;22.95;45.72;101478.63;5129010;28;20442;-33
2022/06/18 00:10:53;;;;;;;0.10;0.10;;;;;;;22.94;45.84;101466.69;5128644;28;20112;-33
2022/06/18 00:13:40;;;;;;;0.10;0.10;;;;;;;22.95;45.80;101464.72;5128485;28;20074;-33
2022/06/18 00:16:10;;;;;;;0.10;0.10;;;;;;;22.94;45.79;101457.53;5098784;28;20062;-33
2022/06/18 00:18:35;;;;;;;0.10;0.10;;;;;;;22.94;45.60;101458.34;5126384;28;20481;-33
2022/06/18 00:21:01;;;;;;;0.10;0.10;;;;;;;22.94;45.75;101458.34;5129357;27;20039;-33
2022/06/18 00:23:28;;;;;;;0.10;0.10;;;;;;;22.94;45.75;101469.47;5113282;28;20172;-34
2022/06/18 00:25:54;;;;;;;0.10;0.10;;;;;;;22.94;45.85;101463.91;5114197;28;20134;-32
2022/06/18 00:28:25;;;;;;;0.10;0.10;;;;;;;22.93;45.84;101459.47;5132921;28;20039;-32
2022/06/18 00:30:51;;;;;;;0.10;0.10;;;;;;;22.93;45.78;101456.69;5113393;28;20216;-32
2022/06/18 00:33:18;;;;;;;0.10;0.10;;;;;;;22.94;45.78;101454.75;5131633;28;20050;-33
2022/06/18 00:35:44;;;;;;;0.10;0.10;;;;;;;22.94;45.86;101457.53;5131543;28;20078;-33
2022/06/18 00:38:14;;;;;;;0.10;0.10;;;;;;;22.93;45.75;101458.66;5112295;28;20074;-33
2022/06/18 00:40:42;;;;;;;0.10;0.10;;;;;;;22.93;45.86;101453.09;5112759;28;20513;-32
2022/06/18 00:43:28;;;;;;;0.10;0.10;;;;;;;22.94;45.74;101451.97;5131912;28;20134;-32
2022/06/18 00:46:01;;;;;;;0.10;0.10;;;;;;;22.92;45.71;101443.91;5131663;28;20457;-33
2022/06/18 00:48:32;;;;;;;0.10;0.10;;;;;;;22.93;45.87;101442.81;5129704;28;20043;-33
2022/06/18 00:51:02;;;;;;;0.10;0.10;;;;;;;22.93;45.80;101442.00;5130991;27;20076;-33
2022/06/18 00:53:32;;;;;;;0.10;0.10;;;;;;;22.93;45.92;101448.38;5132105;28;20074;-33
2022/06/18 00:56:02;;;;;;;0.10;0.10;;;;;;;22.93;45.71;101442.00;5132895;28;20046;-33
2022/06/18 00:58:35;;;;;;;0.10;0.10;;;;;;;22.93;45.78;101442.00;5132345;28;20097;-33
2022/06/18 01:01:04;;;;;;;0.10;0.10;;;;;;;22.93;45.76;101444.78;5103870;28;20516;-33
2022/06/18 01:03:38;;;;;;;0.10;0.10;;;;;;;22.92;45.84;101449.47;5131201;28;20062;-33
2022/06/18 01:06:12;;;;;;;0.10;0.10;;;;;;;22.91;45.88;101441.44;5131580;28;20486;-33
2022/06/18 01:08:37;;;;;;;0.10;0.10;;;;;;;22.91;45.73;101450.59;5112852;28;20075;-33
2022/06/18 01:11:05;;;;;;;0.10;0.10;;;;;;;22.93;45.73;101447.53;5130809;28;20050;-33
2022/06/18 01:13:35;;;;;;;0.10;0.10;;;;;;;22.92;45.76;101446.69;5111393;28;20039;-32
2022/06/18 01:16:02;;;;;;;0.10;0.10;;;;;;;22.92;45.86;101448.66;5132058;28;20198;-33
2022/06/18 01:18:28;;;;;;;0.10;0.10;;;;;;;22.92;45.77;101443.09;5128217;28;20077;-33
2022/06/18 01:21:00;;;;;;;0.10;0.10;;;;;;;22.91;45.88;101439.50;5127742;28;20155;-33
2022/06/18 01:23:34;;;;;;;0.10;0.10;;;;;;;22.92;45.88;101446.69;5113245;28;20142;-33
2022/06/18 01:26:01;;;;;;;0.10;0.10;;;;;;;22.91;45.75;101442.25;5131362;28;20075;-33
2022/06/18 01:28:27;;;;;;;0.10;0.10;;;;;;;22.92;45.80;101443.09;5113334;28;20280;-33
2022/06/18 01:30:52;;;;;;;0.10;0.10;;;;;;;22.91;45.88;101436.72;5113255;28;20111;-33
2022/06/18 01:33:18;;;;;;;0.10;0.10;;;;;;;22.92;45.88;101426.44;5130482;27;20039;-31
2022/06/18 01:35:47;;;;;;;0.10;0.10;;;;;;;22.91;45.85;101424.78;5131068;28;20068;-33
2022/06/18 01:38:12;;;;;;;;;;;;;;;22.92;45.74;101429.22;5113213;28;20731;-33
2022/06/18 01:40:51;;;;;;;0.10;0.10;;;;;;;22.90;45.85;101426.72;5112792;27;19930;-33
2022/06/18 01:43:18;;;;;;;0.10;0.10;;;;;;;22.91;45.88;101422.00;5130816;28;20074;-32
2022/06/18 01:45:46;;;;;;;0.10;0.10;;;;;;;22.90;45.89;101423.97;5129628;28;20381;-33
2022/06/18 01:48:16;;;;;;;;;;;;;;;22.90;45.99;101421.19;5129171;28;20062;-33
2022/06/18 01:50:48;;;;;;;0.10;0.10;;;;;;;22.88;45.90;101426.16;5111679;28;19974;-33
2022/06/18 01:53:24;;;;;;;0.10;0.10;;;;;;;22.90;45.90;101421.19;5130678;28;20528;-33
2022/06/18 01:55:57;;;;;;;0.10;0.10;;;;;;;22.90;45.87;101414.81;5095267;28;20075;-33
2022/06/18 01:58:29;;;;;;;0.10;0.10;;;;;;;22.90;45.94;101414.81;5130943;28;20100;-33
2022/06/18 02:00:57;;;;;;;0.10;0.10;;;;;;;22.89;45.92;101410.34;5129911;28;20082;-33
2022/06/18 02:03:22;;;;;;;0.10;0.10;;;;;;;22.89;45.81;101399.22;5110830;28;20472;-32
2022/06/18 02:05:48;;;;;;;0.10;0.10;;;;;;;22.90;45.94;101398.13;5129946;28;20043;-33
2022/06/18 02:08:17;;;;;;;0.10;0.10;;;;;;;22.90;45.87;101403.69;5131210;28;20035;-33
2022/06/18 02:10:57;;;;;;;0.10;0.10;;;;;;;22.90;45.94;101398.97;5111733;28;20093;-32
2022/06/18 02:13:27;;;;;;;0.10;0.10;;;;;;;22.89;45.94;101404.78;5129948;28;20081;-33
2022/06/18 02:15:53;;;;;;;0.10;0.10;;;;;;;22.89;45.97;101396.47;5129794;28;20074;-33
2022/06/18 02:18:19;;;;;;;0.10;0.10;;;;;;;22.89;45.97;101390.91;5128914;28;20070;-33
2022/06/18 02:20:49;;;;;;;0.10;0.10;;;;;;;22.89;46.17;101396.47;5129770;28;20089;-33
2022/06/18 02:23:16;;;;;;;0.10;0.10;;;;;;;22.87;45.85;101387.56;5095503;28;20068;-33
2022/06/18 02:25:41;;;;;;;0.10;0.10;;;;;;;22.88;45.82;101392.81;5130968;28;20111;-33
2022/06/18 02:28:14;;;;;;;0.10;0.10;;;;;;;22.90;45.97;101393.41;5130389;28;20043;-33
2022/06/18 02:30:40;;;;;;;0.10;0.10;;;;;;;22.88;45.92;101392.00;5129453;28;20137;-33
2022/06/18 02:35:47;;;;;;;0.10;0.10;;;;;;;22.89;45.87;101400.06;5166585;27;20121;-33
2022/06/18 02:38:17;;;;;;;0.10;0.10;;;;;;;22.89;45.97;101397.28;5147798;27;20039;-32
2022/06/18 02:40:42;;;;;;;0.10;0.10;;;;;;;22.88;45.91;101386.44;5147454;27;20181;-32
2022/06/18 02:43:08;;;;;;;0.10;0.10;;;;;;;22.87;45.89;101396.72;5129162;27;20043;-32
2022/06/18 02:45:34;;;;;;;0.10;0.10;;;;;;;22.89;45.97;101405.63;5148862;27;20046;-32
2022/06/18 02:48:00;;;;;;;0.10;0.10;;;;;;;22.87;45.91;101399.50;5145675;27;20131;-32
2022/06/18 02:50:29;;;;;;;0.10;0.10;;;;;;;22.88;46.01;101403.94;5148108;27;20139;-33
2022/06/18 02:53:00;;;;;;;0.10;0.10;;;;;;;22.88;45.97;101405.88;5129376;27;20180;-32
2022/06/18 02:55:43;;;;;;;0.10;0.10;;;;;;;22.88;45.93;101409.50;5148140;27;20145;-32
2022/06/18 02:58:17;;;;;;;0.10;0.10;;;;;;;22.88;45.92;101406.72;5130994;27;20103;-32
2022/06/18 03:00:46;;;;;;;0.10;0.10;;;;;;;22.87;45.91;101402.28;5128555;27;20075;-32
2022/06/18 03:03:14;;;;;;;0.10;0.10;;;;;;;22.86;45.97;101400.63;5127370;27;20082;-32
2022/06/18 03:05:40;;;;;;;0.10;0.10;;;;;;;22.87;45.92;101405.06;5146667;27;20401;-32
2022/06/18 03:08:06;;;;;;;0.10;0.10;;;;;;;22.89;45.99;101411.16;5150486;27;20134;-32
2022/06/18 03:13:18;;;;;;;0.10;0.10;;;;;;;22.86;45.91;101400.63;5120917;27;21382;-32
2022/06/18 03:15:46;;;;;;;0.10;0.10;;;;;;;22.88;45.85;101411.44;5130832;27;20068;-32
2022/06/18 03:18:12;;;;;;;0.10;0.10;;;;;;;22.87;45.97;101412.56;5142959;27;20385;-32
2022/06/18 03:23:23;;;;;;;0.10;0.10;;;;;;;22.87;46.06;101415.34;5159908;27;20202;-32
2022/06/18 03:25:49;;;;;;;0.10;0.10;;;;;;;22.87;45.80;101415.34;5124786;27;20676;-32
2022/06/18 03:28:15;;;;;;;0.10;0.10;;;;;;;22.87;45.97;101415.34;5158266;27;20100;-32
2022/06/18 03:30:42;;;;;;;0.10;0.10;;;;;;;22.87;45.98;101416.16;5159791;27;20089;-32
2022/06/18 03:33:08;;;;;;;0.10;0.10;;;;;;;22.86;46.21;101411.75;5157755;27;20069;-32
2022/06/18 03:35:34;;;;;;;0.00;0.00;;;;;;;22.86;45.98;101414.53;5156357;27;20088;-31
2022/06/18 03:38:00;;;;;;;0.10;0.10;;;;;;;22.86;46.09;101414.53;5159988;27;20386;-32
2022/06/18 03:40:25;;;;;;;0.10;0.10;;;;;;;22.85;46.01;101415.66;5160016;27;20045;-32
2022/06/18 03:42:52;;;;;;;0.10;0.10;;;;;;;22.86;46.05;101414.53;5167709;27;20046;-32
2022/06/18 03:45:18;;;;;;;0.10;0.10;;;;;;;22.87;46.12;101420.91;5166816;27;20088;-32
2022/06/18 03:47:45;;;;;;;0.10;0.10;;;;;;;22.86;45.95;101419.25;5161386;27;20035;-32
2022/06/18 03:50:15;;;;;;;0.10;0.10;;;;;;;22.86;45.95;101424.81;5165718;27;20133;-32
2022/06/18 03:52:41;;;;;;;0.10;0.10;;;;;;;22.86;46.10;101410.91;5166204;27;20080;-32
2022/06/18 03:55:07;;;;;;;0.10;0.10;;;;;;;22.86;46.09;101416.47;5166775;27;20370;-32
2022/06/18 03:57:32;;;;;;;0.10;0.10;;;;;;;22.86;45.93;101414.53;5167040;27;20054;-32
2022/06/18 03:59:59;;;;;;;0.10;0.10;;;;;;;22.85;45.95;101412.88;5166911;27;20042;-32
2022/06/18 04:02:24;;;;;;;0.10;0.10;;;;;;;22.85;46.20;101414.81;5167370;27;20131;-32
2022/06/18 04:04:50;;;;;;;0.10;0.10;;;;;;;22.85;46.11;101412.06;5165074;27;20035;-32
2022/06/18 04:07:18;;;;;;;0.10;0.10;;;;;;;22.86;46.06;101417.31;5165866;27;20050;-31
2022/06/18 04:09:45;;;;;;;0.10;0.10;;;;;;;22.85;46.08;101407.31;5165297;27;20042;-31
2022/06/18 04:12:11;;;;;;;0.10;0.10;;;;;;;22.86;46.00;101410.91;5165633;27;20099;-32
2022/06/18 04:14:37;;;;;;;0.10;0.10;;;;;;;22.86;45.98;101410.91;5167034;27;20043;-32
2022/06/18 04:17:03;;;;;;;0.10;0.10;;;;;;;22.85;46.04;101414.81;5166398;27;20046;-32
2022/06/18 04:19:28;;;;;;;0.10;0.10;;;;;;;22.84;46.00;101405.66;5163399;27;20042;-32
2022/06/18 04:21:54;;;;;;;0.10;0.10;;;;;;;22.85;45.87;101414.81;5166584;27;20065;-32
2022/06/18 04:24:20;;;;;;;0.10;0.10;;;;;;;22.84;46.12;101405.66;5166088;27;20118;-32
2022/06/18 04:26:46;;;;;;;0.00;0.00;;;;;;;22.85;46.07;101409.28;5166591;27;20047;-32
2022/06/18 04:29:12;;;;;;;0.10;0.10;;;;;;;22.85;46.00;101418.44;5164645;27;20043;-32
2022/06/18 04:31:38;;;;;;;0.10;0.10;;;;;;;22.85;46.12;101409.28;5162855;27;20052;-32
2022/06/18 04:34:03;;;;;;;0.10;0.10;;;;;;;22.84;46.17;101414.00;5156320;27;20126;-32
2022/06/18 04:36:32;;;;;;;0.10;0.10;;;;;;;22.85;46.06;101410.09;5132863;27;20042;-32
2022/06/18 04:38:58;;;;;;;0.00;0.00;;;;;;;22.85;46.02;101409.28;5150284;27;20070;-32
2022/06/18 04:41:24;;;;;;;0.10;0.10;;;;;;;22.85;46.15;101409.28;5153035;27;20078;-32
2022/06/18 04:43:49;;;;;;;0.10;0.10;;;;;;;22.85;46.08;101409.28;5150707;27;20061;-32
2022/06/18 04:46:15;;;;;;;0.10;0.10;;;;;;;22.85;45.95;101406.50;5150523;27;20042;-32
2022/06/18 04:48:41;;;;;;;0.10;0.10;;;;;;;22.84;46.17;101399.25;5150170;27;20042;-32
2022/06/18 04:51:06;;;;;;;0.10;0.10;;;;;;;22.83;46.33;101395.66;5148546;27;20036;-32
2022/06/18 04:53:32;;;;;;;0.10;0.10;;;;;;;22.83;46.06;101397.63;5146290;27;20042;-32
2022/06/18 04:55:58;;;;;;;0.10;0.10;;;;;;;22.83;46.05;101392.88;5152254;27;20039;-32
2022/06/18 04:58:23;;;;;;;0.10;0.10;;;;;;;22.83;46.15;101387.31;5152417;27;20423;-32
2022/06/18 05:00:49;;;;;;;0.10;0.10;;;;;;;22.85;46.02;101389.84;5152909;27;20443;-32
2022/06/18 05:03:18;;;;;;;0.00;0.00;;;;;;;22.83;46.16;101390.09;5152074;27;20046;-32
2022/06/18 05:05:44;;;;;;;0.10;0.10;;;;;;;22.83;46.19;101392.06;5151503;27;20050;-32
2022/06/18 05:08:10;;;;;;;0.10;0.10;;;;;;;22.83;46.10;101392.06;5150379;27;20059;-32
2022/06/18 05:10:35;;;;;;;0.10;0.10;;;;;;;22.83;46.11;101397.63;5151609;27;20461;-32
2022/06/18 05:13:02;;;;;;;0.10;0.10;;;;;;;22.82;46.04;101394.00;5151862;27;20064;-32
2022/06/18 05:15:28;;;;;;;0.10;0.10;;;;;;;22.83;46.16;101398.44;5150777;27;20129;-32
2022/06/18 05:17:54;;;;;;;0.10;0.10;;;;;;;22.83;46.22;101394.84;5132134;27;20465;-32
2022/06/18 05:20:22;;;;;;;0.10;0.10;;;;;;;22.83;45.94;101394.84;5151520;27;20122;-32
2022/06/18 05:22:48;;;;;;;0.10;0.10;;;;;;;22.82;46.17;101388.47;5147992;27;20042;-32
2022/06/18 05:25:14;;;;;;;0.10;0.10;;;;;;;22.82;46.03;101393.19;5132701;27;20050;-32
2022/06/18 05:27:41;;;;;;;0.00;0.00;;;;;;;22.83;46.16;101386.50;5150455;27;20182;-32
2022/06/18 05:30:10;;;;;;;0.10;0.10;;;;;;;22.82;46.11;101388.47;5150820;27;20130;-32
2022/06/18 05:32:35;;;;;;;0.10;0.10;;;;;;;22.82;46.03;101390.41;5134203;27;20077;-32
2022/06/18 05:35:01;;;;;;;0.10;0.10;;;;;;;22.82;46.10;101387.63;5151075;27;20046;-32
2022/06/18 05:37:29;;;;;;;0.10;0.10;;;;;;;22.82;46.09;101391.25;5132822;27;20054;-32
2022/06/18 05:39:54;;;;;;;0.10;0.10;;;;;;;22.81;46.08;101381.25;5127979;27;20496;-32
2022/06/18 05:42:21;;;;;;;0.10;0.10;;;;;;;22.83;46.21;101383.72;5151596;27;20039;-32
2022/06/18 05:44:47;;;;;;;0.10;0.10;;;;;;;22.82;46.16;101384.84;5130309;27;20548;-32
2022/06/18 05:47:15;;;;;;;0.10;0.10;;;;;;;22.81;46.01;101386.00;5128192;27;20075;-32
2022/06/18 05:49:41;;;;;;;0.10;0.10;;;;;;;22.82;46.04;101382.09;5150404;27;20039;-31
2022/06/18 05:52:08;;;;;;;0.10;0.10;;;;;;;22.82;46.06;101382.91;5151502;27;20499;-32
2022/06/18 05:54:34;;;;;;;0.10;0.10;;;;;;;22.83;45.99;101392.06;5151191;27;20081;-32
2022/06/18 05:56:59;;;;;;;0.10;0.10;;;;;;;22.81;46.20;101386.81;5133087;27;20090;-32
2022/06/18 05:59:25;;;;;;;0.10;0.10;;;;;;;22.81;46.12;101389.59;5130103;27;21353;-32
2022/06/18 06:01:51;;;;;;;0.10;0.10;;;;;;;22.82;46.06;101384.84;5129391;27;20078;-32
2022/06/18 06:04:19;;;;;;;0.10;0.10;;;;;;;22.81;46.09;101383.22;5132443;27;20038;-32
2022/06/18 06:06:51;;;;;;;0.10;0.10;;;;;;;22.80;46.13;101390.72;5149748;27;20438;-31
2022/06/18 06:11:28;;;;;;;0.10;0.10;;;;;;;22.81;46.06;101391.53;5149582;27;20078;-31
2022/06/18 06:12:02;;;;;;;0.10;0.10;;;;;;;22.80;45.97;101385.16;5128264;27;20115;-32
2022/06/18 06:14:29;;;;;;;0.10;0.10;;;;;;;22.81;46.12;101389.59;5149602;27;20507;-32
2022/06/18 06:16:54;;;;;;;0.10;0.10;;;;;;;22.80;46.19;101393.50;5115180;27;20491;-31
2022/06/18 06:19:20;;;;;;;0.10;0.10;;;;;;;22.80;46.10;101393.50;5147564;27;20133;-31
2022/06/18 06:21:45;;;;;;;0.10;0.10;;;;;;;22.82;46.09;101390.41;5151312;27;20847;-31
2022/06/18 06:24:11;;;;;;;0.10;0.10;;;;;;;22.81;46.21;101394.31;5150428;27;20042;-31
2022/06/18 06:26:37;;;;;;;0.10;0.10;;;;;;;22.80;46.20;101387.94;5150723;27;20040;-31
2022/06/18 06:29:02;;;;;;;0.10;0.10;;;;;;;22.82;46.27;101390.41;5149104;27;20200;-31
2022/06/18 06:31:28;;;;;;;0.10;0.10;;;;;;;22.81;46.20;101391.53;5149259;27;20050;-31
2022/06/18 06:33:54;;;;;;;0.10;0.10;;;;;;;22.79;46.15;101389.88;5131529;27;20043;-32
2022/06/18 06:36:20;;;;;;;0.10;0.10;;;;;;;22.80;46.13;101393.50;5149895;27;20039;-31
2022/06/18 06:38:45;;;;;;;0.10;0.10;;;;;;;22.81;46.09;101394.31;5149761;27;20137;-32
2022/06/18 06:41:18;;;;;;;0.10;0.10;;;;;;;22.82;46.11;101393.19;5149275;27;20043;-32
2022/06/18 06:43:44;;;;;;;0.10;0.10;;;;;;;22.81;46.25;101394.31;5131293;27;20091;-32
2022/06/18 06:46:12;;;;;;;0.10;0.10;;;;;;;22.81;46.15;101391.53;5148476;27;20533;-32
2022/06/18 06:48:38;;;;;;;;;;;;;;;22.81;46.18;101395.16;5147282;27;20086;-33
2022/06/18 06:51:08;;;;;;;0.10;0.10;;;;;;;22.80;46.10;101390.72;5149536;27;19989;-32
2022/06/18 06:53:34;;;;;;;0.10;0.10;;;;;;;22.79;46.11;101384.31;5149759;27;20083;-33
2022/06/18 06:58:45;;;;;;;0.10;0.10;;;;;;;22.79;46.24;101375.97;5134711;27;20139;-32
2022/06/18 07:01:11;;;;;;;0.10;0.10;;;;;;;22.80;46.30;101385.16;5149181;27;20044;-33
2022/06/18 07:03:36;;;;;;;0.10;0.10;;;;;;;22.80;46.10;101382.38;5148904;27;20042;-32
2022/06/18 07:06:02;;;;;;;0.10;0.10;;;;;;;22.80;46.15;101382.38;5150048;27;20051;-32
2022/06/18 07:08:29;;;;;;;0.10;0.10;;;;;;;22.79;46.20;101386.25;5148967;27;20043;-32
2022/06/18 07:10:54;;;;;;;0.10;0.10;;;;;;;22.81;46.15;101386.00;5149439;27;20042;-32
2022/06/18 07:13:28;;;;;;;0.10;0.10;;;;;;;22.79;46.23;101383.50;5148508;27;20129;-32
2022/06/18 07:15:53;;;;;;;0.10;0.10;;;;;;;22.79;46.20;101381.53;5130709;27;20145;-33
2022/06/18 07:18:22;;;;;;;0.10;0.10;;;;;;;22.79;46.19;101386.25;5146174;27;20071;-32
2022/06/18 07:20:48;;;;;;;0.10;0.10;;;;;;;22.80;46.15;101379.63;5130397;27;20062;-32
2022/06/18 07:23:14;;;;;;;0.10;0.10;;;;;;;22.79;46.23;101380.72;5147710;27;20479;-32
2022/06/18 07:25:40;;;;;;;0.10;0.10;;;;;;;22.80;46.27;101382.38;5148410;27;20067;-32
2022/06/18 07:28:06;;;;;;;0.10;0.10;;;;;;;22.81;46.24;101381.25;5150233;27;20066;-33
2022/06/18 07:30:32;;;;;;;0.10;0.10;;;;;;;22.80;46.12;101379.63;5130554;27;20572;-32
2022/06/18 07:32:57;;;;;;;0.10;0.10;;;;;;;22.79;46.24;101384.31;5149443;27;20530;-32
2022/06/18 07:35:26;;;;;;;0.10;0.10;;;;;;;22.79;46.13;101381.53;5148113;27;20068;-33
2022/06/18 07:37:53;;;;;;;0.10;0.10;;;;;;;22.81;46.23;101383.22;5132228;27;20070;-32
2022/06/18 07:40:19;;;;;;;0.10;0.10;;;;;;;22.80;46.14;101387.94;5146517;27;20460;-32
2022/06/18 07:42:47;;;;;;;0.10;0.10;;;;;;;22.79;46.15;101387.09;5127572;27;20043;-32
2022/06/18 07:45:16;;;;;;;0.10;0.10;;;;;;;22.79;45.99;101375.16;5148906;27;20450;-32
2022/06/18 07:47:41;;;;;;;0.10;0.10;;;;;;;22.79;46.13;101381.53;5146837;27;20081;-32
2022/06/18 07:50:07;;;;;;;0.10;0.10;;;;;;;22.79;46.31;101377.94;5149164;27;20434;-32
2022/06/18 07:52:33;;;;;;;0.10;0.10;;;;;;;22.81;46.17;101380.44;5148765;27;20043;-32
2022/06/18 07:54:59;;;;;;;0.10;0.10;;;;;;;22.79;46.18;101359.31;5149170;27;20165;-32
2022/06/18 07:57:24;;;;;;;0.10;0.10;;;;;;;22.79;46.28;101355.72;5149061;27;20041;-32
2022/06/18 07:59:50;;;;;;;0.10;0.10;;;;;;;22.79;46.28;101353.75;5148095;27;20389;-32
2022/06/18 08:02:18;;;;;;;0.10;0.10;;;;;;;22.79;46.17;101352.94;5148619;27;20055;-32
2022/06/18 08:04:43;;;;;;;0.10;0.10;;;;;;;22.79;46.14;101348.22;5148484;27;20520;-33
2022/06/18 08:07:09;;;;;;;0.10;0.10;;;;;;;22.79;46.19;101345.44;5148605;27;20160;-32
2022/06/18 08:09:35;;;;;;;0.10;0.10;;;;;;;22.78;46.36;101343.78;5150536;27;20062;-32
2022/06/18 08:12:01;;;;;;;0.10;0.10;;;;;;;22.79;46.15;101339.88;5152167;27;20042;-32
2022/06/18 08:14:27;;;;;;;0.10;0.10;;;;;;;22.80;46.11;101335.19;5152033;27;20162;-32
2022/06/18 08:16:53;;;;;;;0.10;0.10;;;;;;;22.79;46.32;101336.28;5134280;27;20142;-32
2022/06/18 08:19:18;;;;;;;0.10;0.10;;;;;;;22.78;46.22;101327.13;5149393;27;20065;-32
2022/06/18 08:21:46;;;;;;;0.10;0.10;;;;;;;22.79;46.11;101325.19;5152265;27;20122;-32
2022/06/18 08:24:15;;;;;;;0.10;0.10;;;;;;;22.79;46.27;101327.94;5133647;27;20047;-32
2022/06/18 08:26:41;;;;;;;0.10;0.10;;;;;;;22.78;46.21;101317.97;5134443;27;20097;-32
2022/06/18 08:29:11;;;;;;;0.10;0.10;;;;;;;22.79;46.26;101320.44;5133501;27;20133;-32
2022/06/18 08:31:37;;;;;;;0.10;0.10;;;;;;;22.77;46.29;101325.47;5133616;27;20158;-32
2022/06/18 08:34:03;;;;;;;0.10;0.10;;;;;;;22.78;46.27;101320.75;5152505;27;20425;-34
2022/06/18 08:36:28;;;;;;;0.10;0.10;;;;;;;22.79;46.29;101326.00;5151766;27;20043;-32
2022/06/18 08:38:54;;;;;;;0.10;0.10;;;;;;;22.79;46.28;101319.63;5150971;27;20046;-32
2022/06/18 08:41:49;;;;;;;0.10;0.10;;;;;;;22.79;46.18;101322.41;5152634;27;20078;-32
2022/06/18 08:44:53;;;;;;;0.10;0.10;;;;;;;22.78;46.31;101321.56;5135899;27;20077;-33
2022/06/18 08:47:58;;;;;;;0.10;0.10;;;;;;;22.78;46.15;101318.78;5134546;27;20817;-32
2022/06/18 08:50:53;;;;;;;0.10;0.10;;;;;;;22.78;46.38;101321.56;5134422;27;20058;-32
2022/06/18 08:53:34;;;;;;;0.10;0.10;;;;;;;22.78;46.39;101318.78;5137363;27;20098;-32
2022/06/18 08:56:13;;;;;;;0.10;0.10;;;;;;;22.79;46.22;101325.19;5150620;27;20070;-32
2022/06/18 08:59:02;;;;;;;0.10;0.10;;;;;;;22.79;46.21;101322.41;5134769;27;20164;-33
2022/06/18 09:01:32;;;;;;;0.10;0.10;;;;;;;22.78;46.31;101313.25;5132218;27;20145;-33
2022/06/18 09:04:30;;;;;;;0.10;0.10;;;;;;;22.79;46.28;101314.88;5151894;27;20038;-32
2022/06/18 09:07:13;;;;;;;0.10;0.10;;;;;;;22.79;46.17;101314.06;5137559;27;21318;-32
2022/06/18 09:09:50;;;;;;;0.10;0.10;;;;;;;22.78;46.16;101302.13;5132941;27;20513;-32
2022/06/18 09:12:21;;;;;;;0.10;0.10;;;;;;;22.78;46.23;101298.53;5133879;27;20074;-32
2022/06/18 09:17:46;;;;;;;0.10;0.10;;;;;;;22.78;46.31;101301.31;5158405;27;20203;-32
2022/06/18 09:20:26;;;;;;;0.10;0.10;;;;;;;22.78;46.31;101296.59;5121252;27;20089;-32
2022/06/18 09:22:54;;;;;;;0.00;0.00;;;;;;;22.78;46.27;101296.59;5138315;27;20066;-32
2022/06/18 09:25:23;;;;;;;0.10;0.10;;;;;;;22.78;46.24;101287.44;5106005;27;20130;-32
2022/06/18 09:28:08;;;;;;;0.10;0.10;;;;;;;22.78;46.28;101295.75;5119105;27;20070;-32
2022/06/18 09:30:57;;;;;;;0.10;0.10;;;;;;;22.78;46.27;101287.44;5126769;27;20035;-32
2022/06/18 09:33:45;;;;;;;0.10;0.10;;;;;;;22.78;46.24;101293.81;5125199;27;20070;-33
2022/06/18 09:36:17;;;;;;;0.10;0.10;;;;;;;22.78;46.36;101290.22;5110734;27;20031;-32
2022/06/18 09:38:46;;;;;;;0.10;0.10;;;;;;;22.78;46.43;101291.03;5137486;27;20078;-32
2022/06/18 09:41:18;;;;;;;0.10;0.10;;;;;;;22.77;46.29;101283.84;5103483;27;20086;-32
2022/06/18 09:46:29;;;;;;;0.10;0.10;;;;;;;22.77;46.34;101281.06;5179425;27;20121;-33
2022/06/18 09:48:54;;;;;;;0.10;0.10;;;;;;;22.77;46.33;101289.38;5116601;27;20247;-32
2022/06/18 09:51:26;;;;;;;0.10;0.10;;;;;;;22.78;46.33;101284.66;5154493;27;20050;-32
2022/06/18 09:53:52;;;;;;;0.10;0.10;;;;;;;22.78;46.12;101282.69;5137259;27;20074;-32
2022/06/18 09:56:24;;;;;;;0.10;0.10;;;;;;;22.78;46.30;101284.66;5156464;27;20091;-31
2022/06/18 09:59:00;;;;;;;0.10;0.10;;;;;;;22.78;46.33;101281.88;5155430;27;20070;-31
2022/06/18 10:01:30;;;;;;;0.10;0.10;;;;;;;22.78;46.47;101288.25;5136527;27;20061;-32
2022/06/18 10:06:59;;;;;;;0.10;0.10;;;;;;;22.80;46.27;101279.66;5141717;27;20127;-32
2022/06/18 10:09:42;;;;;;;0.10;0.10;;;;;;;22.79;46.12;101283.53;5152666;27;20085;-32
2022/06/18 10:12:31;;;;;;;0.10;0.10;;;;;;;22.78;46.37;101274.38;5138396;27;20082;-32
2022/06/18 10:14:58;;;;;;;0.10;0.10;;;;;;;22.78;46.23;101277.16;5139740;27;20464;-32
2022/06/18 10:20:48;;;;;;;0.10;0.10;;;;;;;22.77;46.38;101267.16;5157035;27;20142;-32
2022/06/18 10:26:42;;;;;;;0.10;0.10;;;;;;;22.77;46.34;101267.16;5176721;27;20213;-32
2022/06/18 10:29:17;;;;;;;0.10;0.10;;;;;;;22.78;46.36;101265.22;5134260;27;20162;-31
2022/06/18 10:32:08;;;;;;;0.10;0.10;;;;;;;22.78;46.31;101270.78;5159922;27;20070;-32
2022/06/18 10:35:06;;;;;;;0.10;0.10;;;;;;;22.79;46.37;101261.31;5148062;27;20047;-32
2022/06/18 10:37:49;;;;;;;0.10;0.10;;;;;;;22.78;46.39;101254.94;5140997;27;20515;-31
2022/06/18 10:43:44;;;;;;;0.10;0.10;;;;;;;22.78;46.38;101252.16;5176032;27;20124;-32
2022/06/18 10:46:16;;;;;;;0.10;0.10;;;;;;;22.78;46.52;101245.78;5139035;27;20129;-32
2022/06/18 10:49:00;;;;;;;0.10;0.10;;;;;;;22.78;46.43;101243.81;5165914;27;20039;-32
2022/06/18 10:51:29;;;;;;;0.10;0.10;;;;;;;22.78;46.37;101245.78;5166637;27;20133;-32
2022/06/18 10:53:58;;;;;;;0.10;0.10;;;;;;;22.78;46.41;101243.81;5164755;27;20074;-32
2022/06/18 10:56:27;;;;;;;0.10;0.10;;;;;;;22.79;46.40;101244.66;5168601;27;20082;-32
2022/06/18 10:58:56;;;;;;;0.10;0.10;;;;;;;22.78;46.32;101248.56;5148601;27;20086;-31
2022/06/18 11:01:45;;;;;;;0.10;0.10;;;;;;;22.78;46.35;101241.06;5147652;27;20183;-32
2022/06/18 11:04:29;;;;;;;0.10;0.10;;;;;;;22.79;46.40;101241.88;5134980;27;20130;-32
2022/06/18 11:06:57;;;;;;;0.10;0.10;;;;;;;22.77;46.47;101225.53;5148029;27;20177;-32
2022/06/18 11:09:29;;;;;;;0.10;0.10;;;;;;;22.79;46.39;101230.75;5166705;27;20605;-33
2022/06/18 11:12:00;;;;;;;0.10;0.10;;;;;;;22.79;46.35;101230.75;5122046;27;20086;-31
2022/06/18 11:14:25;;;;;;;0.10;0.10;;;;;;;22.78;46.38;101229.94;5147787;27;20134;-33
2022/06/18 11:16:55;;;;;;;0.10;0.10;;;;;;;22.79;46.38;101228.81;5142933;27;20046;-32
2022/06/18 11:19:35;;;;;;;0.10;0.10;;;;;;;22.79;46.52;101230.75;5144903;27;20137;-32
2022/06/18 11:22:15;;;;;;;0.10;0.10;;;;;;;22.79;46.42;101225.22;5165872;27;20518;-32
2022/06/18 11:24:42;;;;;;;0.10;0.10;;;;;;;22.79;46.36;101216.88;5148543;27;20480;-32
2022/06/18 11:27:16;;;;;;;0.10;0.10;;;;;;;22.79;46.44;101219.66;5166611;27;20092;-32
2022/06/18 11:29:46;;;;;;;0.10;0.10;;;;;;;22.79;46.38;101212.16;5147542;27;20085;-32
2022/06/18 11:32:18;;;;;;;0.10;0.10;;;;;;;22.80;46.45;101224.13;5147125;27;20081;-32
2022/06/18 11:34:51;;;;;;;0.10;0.10;;;;;;;22.78;46.43;101213.28;5166648;27;20051;-32
2022/06/18 11:37:21;;;;;;;0.00;0.00;;;;;;;22.80;46.34;101218.56;5131180;27;20125;-32
2022/06/18 11:40:09;;;;;;;0.10;0.10;;;;;;;22.79;46.53;101206.59;5146428;27;20481;-32
2022/06/18 11:42:42;;;;;;;0.10;0.10;;;;;;;22.79;46.40;101200.22;5147270;27;20043;-32
2022/06/18 11:45:25;;;;;;;0.10;0.10;;;;;;;22.80;46.44;101210.22;5153629;27;20457;-32
2022/06/18 11:48:10;;;;;;;0.10;0.10;;;;;;;22.79;46.45;101201.03;5150063;27;20074;-32
2022/06/18 11:51:06;;;;;;;0.10;0.10;;;;;;;22.79;46.31;101194.66;5155940;27;20077;-32
2022/06/18 11:53:40;;;;;;;0.10;0.10;;;;;;;22.79;46.54;101187.16;5127116;27;20074;-31
2022/06/18 11:56:20;;;;;;;0.10;0.10;;;;;;;22.78;46.42;101181.91;5126409;27;20082;-33
2022/06/18 11:58:51;;;;;;;0.10;0.10;;;;;;;22.79;46.34;101175.22;5123577;27;20092;-32
2022/06/18 12:01:29;;;;;;;0.10;0.10;;;;;;;22.79;46.43;101180.78;5141944;27;20485;-32
2022/06/18 12:04:04;;;;;;;0.10;0.10;;;;;;;22.79;46.27;101167.72;5112060;27;20475;-32
2022/06/18 12:06:39;;;;;;;0.10;0.10;;;;;;;22.79;46.40;101161.34;5124080;27;20143;-32
2022/06/18 12:09:22;;;;;;;0.10;0.10;;;;;;;22.79;46.38;101162.16;5140373;27;20096;-32